Time,TemperatureF,DewpointF,PressureIn,WindDirection,WindDirectionDegrees,WindSpeedMPH,WindSpeedGustMPH,Humidity,HourlyPrecipIn,Conditions,Clouds,dailyrainin,SoftwareType,DateUTC
2013-07-26 00:01:00,70.0,66.3,30.00,ESE,110,0.0,0.0,88,0.00,CLR,,0.00,WeatherDisplay:10.37,2013-07-26 04:01:00,
2013-07-26 00:10:00,70.0,66.3,30.00,ESE,109,0.0,0.0,88,0.00,CLR,,0.00,WeatherDisplay:10.37,2013-07-26 04:10:00,
2013-07-26 00:20:00,69.8,66.1,30.00,ESE,109,0.0,0.0,88,0.00,CLR,,0.00,WeatherDisplay:10.37,2013-07-26 04:20:00,
2013-07-26 00:31:00,69.7,66.0,30.00,ESE,109,0.0,0.0,88,0.00,CLR,,0.00,WeatherDisplay:10.37,2013-07-26 04:31:00,
2013-07-26 00:40:00,69.5,65.8,29.99,ESE,109,0.0,0.0,88,0.00,CLR,,0.00,WeatherDisplay:10.37,2013-07-26 04:40:00,
2013-07-26 00:50:00,69.3,65.6,29.99,ESE,109,0.0,0.0,88,0.00,CLR,,0.00,WeatherDisplay:10.37,2013-07-26 04:50:00,
2013-07-26 01:01:00,69.1,65.1,30.00,East,98,0.0,5.0,87,0.00,CLR,,0.00,WeatherDisplay:10.37,2013-07-26 05:01:00,
2013-07-26 01:10:00,69.2,65.2,30.00,ENE,68,0.0,5.0,87,0.00,CLR,,0.00,WeatherDisplay:10.37,2013-07-26 05:10:00,
2013-07-26 01:20:00,69.2,65.2,30.00,SSE,165,0.0,0.0,87,0.00,CLR,,0.00,WeatherDisplay:10.37,2013-07-26 05:20:00,
2013-07-26 01:31:00,69.0,65.0,30.00,SSE,166,0.0,0.0,87,0.00,CLR,,0.00,WeatherDisplay:10.37,2013-07-26 05:31:00,
2013-07-26 01:40:00,68.8,65.1,30.00,SSE,166,0.0,0.0,88,0.00,CLR,,0.00,WeatherDisplay:10.37,2013-07-26 05:40:00,
2013-07-26 01:50:00,68.6,64.9,29.99,NNW,331,0.0,5.0,88,0.00,CLR,,0.00,WeatherDisplay:10.37,2013-07-26 05:50:00,
2013-07-26 02:01:00,68.3,64.9,29.99,NNW,336,0.0,0.0,89,0.00,CLR,,0.00,WeatherDisplay:10.37,2013-07-26 06:01:00,
2013-07-26 02:10:00,68.0,64.6,29.99,NNW,336,0.0,0.0,89,0.00,CLR,,0.00,WeatherDisplay:10.37,2013-07-26 06:10:00,
2013-07-26 02:20:00,67.7,64.7,29.99,NNW,336,0.0,0.0,90,0.00,CLR,,0.00,WeatherDisplay:10.37,2013-07-26 06:20:00,
2013-07-26 02:31:00,67.5,64.4,29.99,NNW,336,0.0,0.0,90,0.00,CLR,,0.00,WeatherDisplay:10.37,2013-07-26 06:31:00,
2013-07-26 02:40:00,67.2,64.2,29.99,NNW,336,0.0,0.0,90,0.00,CLR,,0.00,WeatherDisplay:10.37,2013-07-26 06:40:00,
2013-07-26 02:50:00,67.1,64.1,29.99,NNW,340,0.0,0.0,90,0.00,CLR,,0.00,WeatherDisplay:10.37,2013-07-26 06:50:00,
2013-07-26 03:01:00,67.1,63.8,29.99,North,9,0.0,0.0,89,0.00,CLR,,0.00,WeatherDisplay:10.37,2013-07-26 07:01:00,
2013-07-26 03:10:00,67.4,63.8,29.99,NE,55,0.0,0.0,88,0.00,CLR,,0.00,WeatherDisplay:10.37,2013-07-26 07:10:00,
2013-07-26 03:20:00,67.5,63.8,29.99,NE,55,0.0,0.0,88,0.00,CLR,,0.00,WeatherDisplay:10.37,2013-07-26 07:20:00,
2013-07-26 03:31:00,67.2,63.8,29.99,NE,55,0.0,0.0,89,0.00,CLR,,0.00,WeatherDisplay:10.37,2013-07-26 07:31:00,
2013-07-26 03:40:00,66.9,63.5,29.99,NE,55,0.0,0.0,89,0.00,CLR,,0.00,WeatherDisplay:10.37,2013-07-26 07:40:00,
2013-07-26 03:50:00,66.5,63.5,29.99,NE,55,0.0,0.0,90,0.00,CLR,,0.00,WeatherDisplay:10.37,2013-07-26 07:50:00,
2013-07-26 04:01:00,66.3,63.6,29.99,NE,55,0.0,0.0,91,0.00,CLR,,0.00,WeatherDisplay:10.37,2013-07-26 08:01:00,
2013-07-26 04:10:00,66.0,63.3,29.99,NE,55,0.0,0.0,91,0.00,CLR,,0.00,WeatherDisplay:10.37,2013-07-26 08:10:00,
2013-07-26 04:20:00,65.7,63.3,29.99,NE,55,0.0,0.0,92,0.00,CLR,,0.00,WeatherDisplay:10.37,2013-07-26 08:20:00,
2013-07-26 04:31:00,65.4,63.0,29.99,NE,55,0.0,0.0,92,0.00,CLR,,0.00,WeatherDisplay:10.37,2013-07-26 08:31:00,
2013-07-26 04:40:00,65.2,63.1,29.99,NE,55,0.0,0.0,93,0.00,CLR,,0.00,WeatherDisplay:10.37,2013-07-26 08:40:00,
2013-07-26 04:50:00,65.0,62.9,30.00,NE,55,0.0,0.0,93,0.00,CLR,,0.00,WeatherDisplay:10.37,2013-07-26 08:50:00,
2013-07-26 05:01:00,64.8,62.7,30.00,NE,55,0.0,0.0,93,0.00,CLR,,0.00,WeatherDisplay:10.37,2013-07-26 09:01:00,
2013-07-26 05:10:00,64.6,62.9,30.00,NE,55,0.0,0.0,94,0.00,CLR,,0.00,WeatherDisplay:10.37,2013-07-26 09:10:00,
2013-07-26 05:20:00,64.5,62.7,30.01,NE,55,0.0,0.0,94,0.00,CLR,,0.00,WeatherDisplay:10.37,2013-07-26 09:20:00,
2013-07-26 05:31:00,64.3,62.5,30.01,NE,55,0.0,0.0,94,0.00,CLR,,0.00,WeatherDisplay:10.37,2013-07-26 09:31:00,
2013-07-26 05:40:00,64.1,62.3,30.01,NE,55,0.0,0.0,94,0.00,CLR,,0.00,WeatherDisplay:10.37,2013-07-26 09:40:00,
2013-07-26 05:50:00,63.9,62.2,30.01,NE,55,0.0,0.0,94,0.00,CLR,,0.00,WeatherDisplay:10.37,2013-07-26 09:50:00,
2013-07-26 06:01:00,63.7,62.2,30.02,NE,55,0.0,0.0,95,0.00,CLR,,0.00,WeatherDisplay:10.37,2013-07-26 10:01:00,
2013-07-26 06:10:00,63.6,62.1,30.02,NE,55,0.0,0.0,95,0.00,CLR,,0.00,WeatherDisplay:10.37,2013-07-26 10:10:00,
2013-07-26 06:20:00,63.4,61.9,30.02,NE,55,0.0,0.0,95,0.00,CLR,,0.00,WeatherDisplay:10.37,2013-07-26 10:20:00,
2013-07-26 06:31:00,63.2,61.7,30.02,NE,54,0.0,0.0,95,0.00,CLR,,0.00,WeatherDisplay:10.37,2013-07-26 10:31:00,
2013-07-26 06:40:00,63.1,61.9,30.02,NE,47,0.0,0.0,96,0.00,CLR,,0.00,WeatherDisplay:10.37,2013-07-26 10:40:00,
2013-07-26 06:50:00,63.1,61.9,30.03,NE,47,0.0,0.0,96,0.00,CLR,,0.00,WeatherDisplay:10.37,2013-07-26 10:50:00,
2013-07-26 07:01:00,63.3,62.1,30.03,NE,47,0.0,0.0,96,0.00,CLR,,0.00,WeatherDisplay:10.37,2013-07-26 11:01:00,
2013-07-26 07:10:00,63.5,62.3,30.03,NE,47,0.0,0.0,96,0.00,OVC,,0.00,WeatherDisplay:10.37,2013-07-26 11:10:00,
2013-07-26 07:20:00,63.9,63.0,30.04,NE,47,0.0,0.0,97,0.00,OVC,,0.00,WeatherDisplay:10.37,2013-07-26 11:20:00,
2013-07-26 07:31:00,64.4,63.5,30.05,NE,47,0.0,0.0,97,0.00,OVC,,0.00,WeatherDisplay:10.37,2013-07-26 11:31:00,
2013-07-26 07:40:00,64.7,63.8,30.04,NE,47,0.0,0.0,97,0.00,OVC,,0.00,WeatherDisplay:10.37,2013-07-26 11:40:00,
2013-07-26 07:50:00,65.0,64.2,30.03,NE,47,0.0,0.0,97,0.00,OVC,,0.00,WeatherDisplay:10.37,2013-07-26 11:50:00,
2013-07-26 08:01:00,65.5,64.6,30.03,NE,47,0.0,0.0,97,0.00,OVC,,0.00,WeatherDisplay:10.37,2013-07-26 12:01:00,
2013-07-26 08:10:00,66.2,65.3,30.03,NE,47,0.0,0.0,97,0.00,OVC,,0.00,WeatherDisplay:10.37,2013-07-26 12:10:00,
2013-07-26 08:20:00,66.6,65.8,30.03,NE,47,0.0,0.0,97,0.00,OVC,,0.00,WeatherDisplay:10.37,2013-07-26 12:20:00,
2013-07-26 08:31:00,67.1,65.6,30.03,ENE,68,0.0,2.0,95,0.00,OVC,,0.00,WeatherDisplay:10.37,2013-07-26 12:31:00,
2013-07-26 08:40:00,67.9,65.8,30.03,East,96,0.0,2.0,93,0.00,OVC,,0.00,WeatherDisplay:10.37,2013-07-26 12:40:00,
2013-07-26 08:50:00,68.6,65.9,30.04,East,96,0.0,0.0,91,0.00,OVC,,0.00,WeatherDisplay:10.37,2013-07-26 12:50:00,
2013-07-26 09:01:00,69.7,66.0,30.04,East,96,0.0,0.0,88,0.00,OVC,,0.00,WeatherDisplay:10.37,2013-07-26 13:01:00,
2013-07-26 09:10:00,70.4,66.6,30.05,ENE,74,0.0,0.0,88,0.00,OVC,,0.00,WeatherDisplay:10.37,2013-07-26 13:10:00,
2013-07-26 09:20:00,70.8,66.1,30.05,ENE,66,0.0,0.0,85,0.00,OVC,,0.00,WeatherDisplay:10.37,2013-07-26 13:20:00,
2013-07-26 09:31:00,71.3,66.6,30.05,ENE,66,0.0,0.0,85,0.00,OVC,,0.00,WeatherDisplay:10.37,2013-07-26 13:31:00,
2013-07-26 09:40:00,71.5,66.8,30.05,ENE,66,0.0,0.0,85,0.00,OVC,,0.00,WeatherDisplay:10.37,2013-07-26 13:40:00,
2013-07-26 09:50:00,71.7,66.6,30.05,ENE,71,0.0,0.0,84,0.00,OVC,,0.00,WeatherDisplay:10.37,2013-07-26 13:50:00,
2013-07-26 10:01:00,71.8,66.7,30.05,East,85,0.0,0.0,84,0.00,OVC,,0.00,WeatherDisplay:10.37,2013-07-26 14:01:00,
2013-07-26 10:10:00,72.2,67.1,30.05,East,85,0.0,0.0,84,0.00,OVC,,0.00,WeatherDisplay:10.37,2013-07-26 14:10:00,
2013-07-26 10:20:00,72.8,67.7,30.05,East,85,0.0,0.0,84,0.00,OVC,,0.00,WeatherDisplay:10.37,2013-07-26 14:20:00,
2013-07-26 10:31:00,73.5,68.7,30.05,East,85,0.0,0.0,85,0.00,OVC,,0.00,WeatherDisplay:10.37,2013-07-26 14:31:00,
2013-07-26 10:40:00,74.0,68.5,30.05,East,85,0.0,0.0,83,0.00,OVC,,0.00,WeatherDisplay:10.37,2013-07-26 14:40:00,
2013-07-26 10:50:00,74.7,69.1,30.05,East,85,0.0,0.0,83,0.00,OVC,,0.00,WeatherDisplay:10.37,2013-07-26 14:50:00,
2013-07-26 11:01:00,75.1,69.2,30.05,East,85,0.0,0.0,82,0.00,OVC,,0.00,WeatherDisplay:10.37,2013-07-26 15:01:00,
2013-07-26 11:10:00,75.6,70.5,30.05,East,85,0.0,0.0,84,0.00,OVC,,0.00,WeatherDisplay:10.37,2013-07-26 15:10:00,
2013-07-26 11:20:00,76.4,70.1,30.05,East,85,0.0,0.0,81,0.00,OVC,,0.00,WeatherDisplay:10.37,2013-07-26 15:20:00,
2013-07-26 11:31:00,76.7,70.1,30.05,East,87,0.0,0.0,80,0.00,OVC,,0.00,WeatherDisplay:10.37,2013-07-26 15:31:00,
2013-07-26 11:40:00,77.2,70.5,30.05,East,86,0.0,0.0,80,0.00,OVC,,0.00,WeatherDisplay:10.37,2013-07-26 15:40:00,
2013-07-26 11:50:00,77.5,70.5,30.05,East,91,0.0,4.0,79,0.00,OVC,,0.00,WeatherDisplay:10.37,2013-07-26 15:50:00,
2013-07-26 12:01:00,77.5,70.1,30.04,SSW,210,2.0,3.0,78,0.00,OVC,,0.00,WeatherDisplay:10.37,2013-07-26 16:01:00,
2013-07-26 12:10:00,77.5,70.8,30.04,SW,231,0.0,1.0,80,0.00,OVC,,0.00,WeatherDisplay:10.37,2013-07-26 16:10:00,
2013-07-26 12:20:00,77.5,70.1,30.04,SW,231,0.0,3.0,78,0.00,OVC,,0.00,WeatherDisplay:10.37,2013-07-26 16:20:00,
2013-07-26 12:31:00,77.8,71.1,30.04,SW,235,0.0,2.0,80,0.00,OVC,,0.00,WeatherDisplay:10.37,2013-07-26 16:31:00,
2013-07-26 12:40:00,78.0,71.0,30.04,SW,217,0.0,0.0,79,0.00,OVC,,0.00,WeatherDisplay:10.37,2013-07-26 16:40:00,
2013-07-26 12:50:00,79.0,72.3,30.04,SW,215,0.0,3.0,80,0.00,OVC,,0.00,WeatherDisplay:10.37,2013-07-26 16:50:00,
2013-07-26 13:01:00,80.1,72.6,30.04,WSW,239,1.0,4.0,78,0.00,OVC,,0.00,WeatherDisplay:10.37,2013-07-26 17:01:00,
2013-07-26 13:10:00,81.2,74.1,30.03,WSW,252,0.0,4.0,79,0.00,CLR,,0.00,WeatherDisplay:10.37,2013-07-26 17:10:00,
2013-07-26 13:20:00,82.1,73.0,30.03,West,269,2.0,6.0,74,0.00,CLR,,0.00,WeatherDisplay:10.37,2013-07-26 17:20:00,
2013-07-26 13:31:00,82.3,72.8,30.03,WSW,251,2.0,6.0,73,0.00,CLR,,0.00,WeatherDisplay:10.37,2013-07-26 17:31:00,
2013-07-26 13:40:00,82.4,73.7,30.02,WSW,252,1.0,5.0,75,0.00,SCT,,0.00,WeatherDisplay:10.37,2013-07-26 17:40:00,
2013-07-26 13:50:00,83.2,74.1,30.02,West,265,0.0,4.0,74,0.00,SCT,,0.00,WeatherDisplay:10.37,2013-07-26 17:50:00,
2013-07-26 14:01:00,84.5,73.6,30.01,SW,214,0.0,6.0,70,0.00,SCT,,0.00,WeatherDisplay:10.37,2013-07-26 18:01:00,
2013-07-26 14:10:00,84.8,73.5,30.01,West,262,1.0,6.0,69,0.00,BKN,,0.00,WeatherDisplay:10.37,2013-07-26 18:10:00,
2013-07-26 14:20:00,85.0,74.1,30.01,WSW,242,2.0,5.0,70,0.00,SCT,,0.00,WeatherDisplay:10.37,2013-07-26 18:20:00,
2013-07-26 14:31:00,85.8,74.0,30.00,SSW,192,0.0,4.0,68,0.00,SCT,,0.00,WeatherDisplay:10.37,2013-07-26 18:31:00,
2013-07-26 14:40:00,86.2,74.4,29.99,SW,232,0.0,2.0,68,0.00,SCT,,0.00,WeatherDisplay:10.37,2013-07-26 18:40:00,
2013-07-26 14:50:00,87.1,72.5,29.99,West,281,2.0,6.0,62,0.00,SCT,,0.00,WeatherDisplay:10.37,2013-07-26 18:50:00,
2013-07-26 15:01:00,86.7,72.6,29.99,West,267,3.0,6.0,63,0.00,SCT,,0.00,WeatherDisplay:10.37,2013-07-26 19:01:00,
2013-07-26 15:10:00,86.8,72.2,29.98,SW,230,3.0,7.0,62,0.00,SCT,,0.00,WeatherDisplay:10.37,2013-07-26 19:10:00,
2013-07-26 15:20:00,87.2,71.6,29.98,SW,235,1.0,6.0,60,0.00,SCT,,0.00,WeatherDisplay:10.37,2013-07-26 19:20:00,
2013-07-26 15:31:00,87.6,72.0,29.98,West,263,2.0,5.0,60,0.00,SCT,,0.00,WeatherDisplay:10.37,2013-07-26 19:31:00,
2013-07-26 15:40:00,87.8,73.2,29.97,SW,231,2.0,6.0,62,0.00,SCT,,0.00,WeatherDisplay:10.37,2013-07-26 19:40:00,
2013-07-26 15:50:00,88.0,72.9,29.97,WSW,242,1.0,7.0,61,0.00,CLR,,0.00,WeatherDisplay:10.37,2013-07-26 19:50:00,
2013-07-26 16:01:00,88.3,72.7,29.97,WSW,243,2.0,8.0,60,0.00,CLR,,0.00,WeatherDisplay:10.37,2013-07-26 20:01:00,
2013-07-26 16:10:00,87.8,71.7,29.97,WSW,254,1.0,6.0,59,0.00,SCT,,0.00,WeatherDisplay:10.37,2013-07-26 20:10:00,
2013-07-26 16:20:00,87.5,71.9,29.97,West,267,3.0,7.0,60,0.00,CLR,,0.00,WeatherDisplay:10.37,2013-07-26 20:20:00,
2013-07-26 16:31:00,87.6,71.5,29.97,SW,223,1.0,8.0,59,0.00,CLR,,0.00,WeatherDisplay:10.37,2013-07-26 20:31:00,
2013-07-26 16:40:00,87.3,71.2,29.96,WSW,249,0.0,7.0,59,0.00,CLR,,0.00,WeatherDisplay:10.37,2013-07-26 20:40:00,
2013-07-26 16:50:00,86.8,70.7,29.96,West,260,2.0,7.0,59,0.00,CLR,,0.00,WeatherDisplay:10.37,2013-07-26 20:50:00,
2013-07-26 17:01:00,86.0,70.0,29.97,WNW,282,2.0,5.0,59,0.00,CLR,,0.00,WeatherDisplay:10.37,2013-07-26 21:01:00,
2013-07-26 17:10:00,85.6,71.1,29.97,West,259,1.0,7.0,62,0.00,SCT,,0.00,WeatherDisplay:10.37,2013-07-26 21:10:00,
2013-07-26 17:20:00,85.7,71.2,29.97,West,269,0.0,6.0,62,0.00,CLR,,0.00,WeatherDisplay:10.37,2013-07-26 21:20:00,
2013-07-26 17:31:00,85.8,71.2,29.97,West,267,0.0,8.0,62,0.00,CLR,,0.00,WeatherDisplay:10.37,2013-07-26 21:31:00,
2013-07-26 17:40:00,86.0,71.9,29.96,WSW,247,0.0,7.0,63,0.00,CLR,,0.00,WeatherDisplay:10.37,2013-07-26 21:40:00,
2013-07-26 17:50:00,85.6,70.6,29.96,WSW,251,3.0,9.0,61,0.00,SCT,,0.00,WeatherDisplay:10.37,2013-07-26 21:50:00,
2013-07-26 18:01:00,85.4,71.4,29.96,WSW,257,0.0,1.0,63,0.00,SCT,,0.00,WeatherDisplay:10.37,2013-07-26 22:01:00,
2013-07-26 18:10:00,84.9,71.4,29.95,West,265,0.0,3.0,64,0.00,SCT,,0.00,WeatherDisplay:10.37,2013-07-26 22:10:00,
2013-07-26 18:20:00,84.5,71.4,29.95,West,269,0.0,3.0,65,0.00,SCT,,0.00,WeatherDisplay:10.37,2013-07-26 22:20:00,
2013-07-26 18:31:00,83.7,69.8,29.95,West,269,2.0,9.0,63,0.00,SCT,,0.00,WeatherDisplay:10.37,2013-07-26 22:31:00,
2013-07-26 18:40:00,83.5,70.0,29.95,West,268,0.0,6.0,64,0.00,CLR,,0.00,WeatherDisplay:10.37,2013-07-26 22:40:00,
2013-07-26 18:50:00,83.4,69.9,29.95,West,265,0.0,5.0,64,0.00,CLR,,0.00,WeatherDisplay:10.37,2013-07-26 22:50:00,
2013-07-26 19:01:00,83.1,69.2,29.95,West,269,1.0,5.0,63,0.00,CLR,,0.00,WeatherDisplay:10.37,2013-07-26 23:01:00,
2013-07-26 19:10:00,82.9,71.2,29.96,West,273,0.0,3.0,68,0.00,CLR,,0.00,WeatherDisplay:10.37,2013-07-26 23:10:00,
2013-07-26 19:20:00,81.7,70.9,29.96,West,273,0.0,0.0,70,0.00,CLR,,0.00,WeatherDisplay:10.37,2013-07-26 23:20:00,
2013-07-26 19:31:00,80.6,71.9,29.96,West,273,0.0,0.0,75,0.00,CLR,,0.00,WeatherDisplay:10.37,2013-07-26 23:31:00,
2013-07-26 19:40:00,79.7,72.3,29.96,West,273,0.0,0.0,78,0.00,CLR,,0.00,WeatherDisplay:10.37,2013-07-26 23:40:00,
2013-07-26 19:50:00,78.6,71.9,29.96,West,273,0.0,0.0,80,0.00,CLR,,0.00,WeatherDisplay:10.37,2013-07-26 23:50:00,
2013-07-26 20:01:00,77.9,72.0,29.97,West,273,0.0,0.0,82,0.00,CLR,,0.00,WeatherDisplay:10.37,2013-07-27 00:01:00,
2013-07-26 20:10:00,77.4,71.9,29.96,West,273,0.0,0.0,83,0.00,CLR,,0.00,WeatherDisplay:10.37,2013-07-27 00:10:00,
2013-07-26 20:20:00,76.9,71.7,29.97,West,273,0.0,0.0,84,0.00,CLR,,0.00,WeatherDisplay:10.37,2013-07-27 00:20:00,
2013-07-26 20:31:00,76.4,71.6,29.97,West,273,0.0,0.0,85,0.00,CLR,,0.00,WeatherDisplay:10.37,2013-07-27 00:31:00,
2013-07-26 20:40:00,75.9,71.1,29.97,West,273,0.0,0.0,85,0.00,CLR,,0.00,WeatherDisplay:10.37,2013-07-27 00:40:00,
2013-07-26 20:50:00,75.4,70.9,29.97,West,273,0.0,0.0,86,0.00,CLR,,0.00,WeatherDisplay:10.37,2013-07-27 00:50:00,
2013-07-26 21:01:00,74.9,71.1,29.97,West,273,0.0,0.0,88,0.00,CLR,,0.00,WeatherDisplay:10.37,2013-07-27 01:01:00,
2013-07-26 21:10:00,74.4,70.6,29.97,West,265,0.0,0.0,88,0.00,CLR,,0.00,WeatherDisplay:10.37,2013-07-27 01:10:00,
2013-07-26 21:20:00,74.0,70.6,29.97,West,265,0.0,0.0,89,0.00,CLR,,0.00,WeatherDisplay:10.37,2013-07-27 01:20:00,
2013-07-26 21:31:00,73.6,70.5,29.97,West,265,0.0,0.0,90,0.00,CLR,,0.00,WeatherDisplay:10.37,2013-07-27 01:31:00,
2013-07-26 21:40:00,73.3,70.2,29.98,West,265,0.0,0.0,90,0.00,CLR,,0.00,WeatherDisplay:10.37,2013-07-27 01:40:00,
2013-07-26 21:50:00,72.9,70.1,29.98,West,265,0.0,0.0,91,0.00,CLR,,0.00,WeatherDisplay:10.37,2013-07-27 01:50:00,
2013-07-26 22:01:00,72.6,70.2,29.98,West,265,0.0,0.0,92,0.00,CLR,,0.00,WeatherDisplay:10.37,2013-07-27 02:01:00,
2013-07-26 22:10:00,72.4,69.9,29.98,West,265,0.0,0.0,92,0.00,CLR,,0.00,WeatherDisplay:10.37,2013-07-27 02:10:00,
2013-07-26 22:20:00,72.2,70.1,29.97,West,265,0.0,0.0,93,0.00,CLR,,0.00,WeatherDisplay:10.37,2013-07-27 02:20:00,
2013-07-26 22:31:00,72.0,69.8,29.97,West,265,0.0,0.0,93,0.00,CLR,,0.00,WeatherDisplay:10.37,2013-07-27 02:31:00,
2013-07-26 22:40:00,71.7,69.6,29.98,West,265,0.0,0.0,93,0.00,CLR,,0.00,WeatherDisplay:10.37,2013-07-27 02:40:00,
2013-07-26 22:50:00,71.7,69.8,29.98,West,265,0.0,0.0,94,0.00,CLR,,0.00,WeatherDisplay:10.37,2013-07-27 02:50:00,
2013-07-26 23:01:00,71.8,70.0,29.98,West,265,0.0,0.0,94,0.00,CLR,,0.00,WeatherDisplay:10.37,2013-07-27 03:01:00,
2013-07-26 23:10:00,72.0,70.5,29.98,West,265,0.0,0.0,95,0.00,CLR,,0.00,WeatherDisplay:10.37,2013-07-27 03:10:00,
2013-07-26 23:20:00,72.2,70.7,29.98,West,265,0.0,0.0,95,0.00,CLR,,0.00,WeatherDisplay:10.37,2013-07-27 03:20:00,
2013-07-26 23:31:00,72.2,70.4,29.98,West,265,0.0,0.0,94,0.00,CLR,,0.00,WeatherDisplay:10.37,2013-07-27 03:31:00,
2013-07-26 23:40:00,72.1,70.3,29.98,West,265,0.0,0.0,94,0.00,SCT,,0.00,WeatherDisplay:10.37,2013-07-27 03:40:00,
2013-07-26 23:50:00,71.9,70.1,29.98,West,265,0.0,0.0,94,0.00,SCT,,0.00,WeatherDisplay:10.37,2013-07-27 03:50:00,